sensor_id;sensor_type;location;lat;lon;timestamp;pressure;altitude;pressure_sealevel;temperature;humidity
32735;BME280;19112;51.076;3.706;2023-07-20T06:03:15;101475.06;;;22.43;65.07
32735;BME280;19112;51.076;3.706;2023-07-20T06:10:36;101165.63;;;21.07;63.52
32735;BME280;19112;51.076;3.706;2023-07-20T06:58:04;101132.56;;;21.39;57.28
32735;BME280;19112;51.076;3.706;2023-07-20T09:36:49;101345.38;;;27.88;38.03
32735;BME280;19112;51.076;3.706;2023-07-20T09:39:16;101215.00;;;26.96;37.42
32735;BME280;19112;51.076;3.706;2023-07-20T09:41:42;101380.41;;;28.19;36.89
32735;BME280;19112;51.076;3.706;2023-07-20T09:44:09;101307.31;;;27.96;36.76
32735;BME280;19112;51.076;3.706;2023-07-20T09:50:17;101209.25;;;27.67;35.35
32735;BME280;19112;51.076;3.706;2023-07-20T09:52:43;101278.06;;;28.10;34.54
32735;BME280;19112;51.076;3.706;2023-07-20T09:55:10;101335.06;;;28.57;33.30
32735;BME280;19112;51.076;3.706;2023-07-20T09:57:37;101323.16;;;28.63;33.93
32735;BME280;19112;51.076;3.706;2023-07-20T10:00:06;101385.06;;;28.99;33.74
32735;BME280;19112;51.076;3.706;2023-07-20T10:02:45;101186.69;;;27.98;33.68
32735;BME280;19112;51.076;3.706;2023-07-20T10:05:13;101334.44;;;29.02;32.92
32735;BME280;19112;51.076;3.706;2023-07-20T10:07:50;101154.09;;;28.04;32.46
32735;BME280;19112;51.076;3.706;2023-07-20T10:10:18;101289.19;;;28.81;32.46
32735;BME280;19112;51.076;3.706;2023-07-20T10:12:48;101307.38;;;29.02;33.00
32735;BME280;19112;51.076;3.706;2023-07-20T10:15:33;101427.56;;;29.95;33.20
32735;BME280;19112;51.076;3.706;2023-07-20T10:20:43;101332.34;;;29.35;32.70
32735;BME280;19112;51.076;3.706;2023-07-20T10:23:10;101484.13;;;30.27;32.87
32735;BME280;19112;51.076;3.706;2023-07-20T10:25:38;101406.66;;;29.75;32.70
32735;BME280;19112;51.076;3.706;2023-07-20T10:28:05;101334.75;;;29.18;32.61
32735;BME280;19112;51.076;3.706;2023-07-20T10:30:35;101331.06;;;29.20;31.88
32735;BME280;19112;51.076;3.706;2023-07-20T10:33:03;101338.53;;;29.14;32.16
32735;BME280;19112;51.076;3.706;2023-07-20T10:35:30;101406.56;;;29.53;31.68
32735;BME280;19112;51.076;3.706;2023-07-20T10:38:03;101377.38;;;29.36;31.55
32735;BME280;19112;51.076;3.706;2023-07-20T10:40:39;101429.63;;;29.88;30.97
32735;BME280;19112;51.076;3.706;2023-07-20T10:43:06;101256.25;;;28.96;31.57
32735;BME280;19112;51.076;3.706;2023-07-20T10:48:23;101272.91;;;29.57;31.81
32735;BME280;19112;51.076;3.706;2023-07-20T10:51:14;101345.53;;;29.91;30.54
32735;BME280;19112;51.076;3.706;2023-07-20T10:53:45;101438.44;;;30.62;30.58
32735;BME280;19112;51.076;3.706;2023-07-20T10:56:23;101160.91;;;29.14;31.06
32735;BME280;19112;51.076;3.706;2023-07-20T10:58:49;101365.16;;;30.21;30.59
32735;BME280;19112;51.076;3.706;2023-07-20T11:01:17;101371.38;;;30.45;28.85
32735;BME280;19112;51.076;3.706;2023-07-20T11:03:44;101213.56;;;29.51;29.76
32735;BME280;19112;51.076;3.706;2023-07-20T11:11:35;101384.84;;;30.70;30.27
32735;BME280;19112;51.076;3.706;2023-07-20T11:14:05;101274.06;;;29.95;30.66
32735;BME280;19112;51.076;3.706;2023-07-20T11:16:46;101458.06;;;31.13;30.76
32735;BME280;19112;51.076;3.706;2023-07-20T11:21:53;101220.88;;;29.26;31.51
32735;BME280;19112;51.076;3.706;2023-07-20T11:24:20;101207.63;;;28.69;31.75
32735;BME280;19112;51.076;3.706;2023-07-20T11:29:18;101247.75;;;28.02;32.84
32735;BME280;19112;51.076;3.706;2023-07-20T11:31:46;101367.88;;;28.73;33.42
32735;BME280;19112;51.076;3.706;2023-07-20T11:34:19;101197.78;;;27.89;33.72
32735;BME280;19112;51.076;3.706;2023-07-20T11:36:48;101273.97;;;28.53;32.96
32735;BME280;19112;51.076;3.706;2023-07-20T11:39:17;101186.13;;;27.88;33.30
32735;BME280;19112;51.076;3.706;2023-07-20T11:41:55;101153.06;;;27.82;33.51
32735;BME280;19112;51.076;3.706;2023-07-20T11:44:26;101184.34;;;28.14;33.15
32735;BME280;19112;51.076;3.706;2023-07-20T11:50:16;101259.81;;;28.71;33.86
32735;BME280;19112;51.076;3.706;2023-07-20T11:52:42;101366.09;;;29.48;32.98
32735;BME280;19112;51.076;3.706;2023-07-20T11:55:08;101277.41;;;29.08;33.15
32735;BME280;19112;51.076;3.706;2023-07-20T11:57:35;101175.34;;;28.65;32.79
32735;BME280;19112;51.076;3.706;2023-07-20T12:00:03;101172.38;;;28.73;32.54
32735;BME280;19112;51.076;3.706;2023-07-20T12:02:38;101165.94;;;28.77;32.30
32735;BME280;19112;51.076;3.706;2023-07-20T12:05:07;101277.22;;;29.38;31.75
32735;BME280;19112;51.076;3.706;2023-07-20T12:07:36;101347.47;;;29.88;32.39
32735;BME280;19112;51.076;3.706;2023-07-20T12:10:10;101235.75;;;29.37;32.61
32735;BME280;19112;51.076;3.706;2023-07-20T12:12:44;101144.47;;;28.72;32.21
32735;BME280;19112;51.076;3.706;2023-07-20T12:15:19;101422.59;;;30.53;32.00
32735;BME280;19112;51.076;3.706;2023-07-20T12:17:46;101252.44;;;29.48;31.87
32735;BME280;19112;51.076;3.706;2023-07-20T12:20:12;101200.75;;;29.33;32.20
32735;BME280;19112;51.076;3.706;2023-07-20T12:22:43;101186.00;;;29.41;32.44
32735;BME280;19112;51.076;3.706;2023-07-20T12:25:09;101078.81;;;28.93;31.93
32735;BME280;19112;51.076;3.706;2023-07-20T12:27:38;101254.28;;;29.93;31.81
32735;BME280;19112;51.076;3.706;2023-07-20T12:30:06;101171.44;;;29.44;32.16
32735;BME280;19112;51.076;3.706;2023-07-20T12:32:32;101285.22;;;30.10;32.58
32735;BME280;19112;51.076;3.706;2023-07-20T12:34:58;101283.28;;;30.13;32.60
32735;BME280;19112;51.076;3.706;2023-07-20T12:37:26;101176.63;;;29.72;33.00
32735;BME280;19112;51.076;3.706;2023-07-20T12:39:53;101223.91;;;30.07;32.54
32735;BME280;19112;51.076;3.706;2023-07-20T12:42:19;101274.72;;;30.66;32.06
32735;BME280;19112;51.076;3.706;2023-07-20T12:44:44;101307.28;;;31.07;31.97
32735;BME280;19112;51.076;3.706;2023-07-20T12:47:10;101244.44;;;30.77;31.60
32735;BME280;19112;51.076;3.706;2023-07-20T12:49:36;101348.69;;;31.33;31.64
32735;BME280;19112;51.076;3.706;2023-07-20T12:52:02;101341.75;;;31.25;32.26
32735;BME280;19112;51.076;3.706;2023-07-20T12:54:28;101329.53;;;31.36;30.35
32735;BME280;19112;51.076;3.706;2023-07-20T12:56:55;101394.75;;;31.94;29.82
32735;BME280;19112;51.076;3.706;2023-07-20T12:59:20;101338.19;;;31.64;29.40
32735;BME280;19112;51.076;3.706;2023-07-20T13:01:46;101205.66;;;30.95;29.12
32735;BME280;19112;51.076;3.706;2023-07-20T13:04:12;101271.72;;;31.52;29.14
32735;BME280;19112;51.076;3.706;2023-07-20T13:06:39;101181.25;;;31.14;29.13
32735;BME280;19112;51.076;3.706;2023-07-20T13:09:05;101298.84;;;31.92;28.07
32735;BME280;19112;51.076;3.706;2023-07-20T13:11:31;101198.06;;;31.22;28.76
32735;BME280;19112;51.076;3.706;2023-07-20T13:13:57;101202.81;;;31.17;29.02
32735;BME280;19112;51.076;3.706;2023-07-20T13:16:23;101223.47;;;31.20;28.15
32735;BME280;19112;51.076;3.706;2023-07-20T13:18:49;101262.56;;;31.36;27.85
32735;BME280;19112;51.076;3.706;2023-07-20T13:21:15;101350.34;;;31.74;28.23
32735;BME280;19112;51.076;3.706;2023-07-20T13:23:41;101328.75;;;31.52;29.03
32735;BME280;19112;51.076;3.706;2023-07-20T13:26:06;101294.06;;;30.99;29.21
32735;BME280;19112;51.076;3.706;2023-07-20T13:28:33;101190.34;;;30.11;29.76
32735;BME280;19112;51.076;3.706;2023-07-20T13:30:59;101397.22;;;30.98;30.61
32735;BME280;19112;51.076;3.706;2023-07-20T13:33:25;101207.75;;;29.84;30.32
32735;BME280;19112;51.076;3.706;2023-07-20T13:35:51;101364.31;;;30.41;30.98
32735;BME280;19112;51.076;3.706;2023-07-20T13:38:17;101164.50;;;28.90;31.91
32735;BME280;19112;51.076;3.706;2023-07-20T13:40:44;101236.56;;;29.16;32.32
32735;BME280;19112;51.076;3.706;2023-07-20T13:43:09;101310.72;;;29.10;32.47
32735;BME280;19112;51.076;3.706;2023-07-20T13:45:35;101270.72;;;28.68;33.50
32735;BME280;19112;51.076;3.706;2023-07-20T13:48:01;101280.09;;;28.58;33.62
32735;BME280;19112;51.076;3.706;2023-07-20T14:30:29;100944.97;;;21.05;71.71
32735;BME280;19112;51.076;3.706;2023-07-20T14:33:36;101393.69;;;23.66;73.89
32735;BME280;19112;51.076;3.706;2023-07-20T14:36:17;100979.56;;;21.14;75.47
32735;BME280;19112;51.076;3.706;2023-07-20T14:38:46;101383.09;;;23.52;75.25
32735;BME280;19112;51.076;3.706;2023-07-20T14:41:23;101255.53;;;22.53;79.06
32735;BME280;19112;51.076;3.706;2023-07-20T14:43:59;100792.72;;;20.02;79.21
32735;BME280;19112;51.076;3.706;2023-07-20T14:46:35;100707.00;;;19.31;83.24
32735;BME280;19112;51.076;3.706;2023-07-20T14:49:21;101376.41;;;23.10;85.68
32735;BME280;19112;51.076;3.706;2023-07-20T14:51:59;100881.56;;;20.10;86.32
32735;BME280;19112;51.076;3.706;2023-07-20T14:54:42;100991.50;;;20.67;87.58
32735;BME280;19112;51.076;3.706;2023-07-20T14:57:24;100866.50;;;20.00;88.02
32735;BME280;19112;51.076;3.706;2023-07-20T14:59:58;100918.84;;;20.13;87.42
32735;BME280;19112;51.076;3.706;2023-07-20T15:03:05;101026.97;;;20.81;88.91
32735;BME280;19112;51.076;3.706;2023-07-20T15:05:45;100814.38;;;19.30;88.53
32735;BME280;19112;51.076;3.706;2023-07-20T15:08:35;101371.44;;;22.64;89.34
32735;BME280;19112;51.076;3.706;2023-07-20T15:11:09;100879.00;;;19.81;89.43
32735;BME280;19112;51.076;3.706;2023-07-20T15:13:58;101015.56;;;20.58;87.82
32735;BME280;19112;51.076;3.706;2023-07-20T15:16:27;100961.41;;;20.28;89.01
32735;BME280;19112;51.076;3.706;2023-07-20T15:18:56;101116.72;;;21.05;90.17
32735;BME280;19112;51.076;3.706;2023-07-20T15:21:47;101365.00;;;22.86;89.63
32735;BME280;19112;51.076;3.706;2023-07-20T15:24:26;100803.63;;;19.56;91.49
32735;BME280;19112;51.076;3.706;2023-07-20T15:27:25;101347.97;;;22.96;91.10
32735;BME280;19112;51.076;3.706;2023-07-20T15:30:08;100997.59;;;20.89;90.70
32735;BME280;19112;51.076;3.706;2023-07-20T15:33:27;101345.03;;;23.21;89.51
32735;BME280;19112;51.076;3.706;2023-07-20T15:36:09;100884.78;;;20.61;91.88
32735;BME280;19112;51.076;3.706;2023-07-20T15:39:04;100837.81;;;20.38;92.86
32735;BME280;19112;51.076;3.706;2023-07-20T15:42:26;100997.69;;;21.78;99.97
32735;BME280;19112;51.076;3.706;2023-07-20T15:45:46;101323.66;;;24.50;100.00
32735;BME280;19112;51.076;3.706;2023-07-20T15:48:20;100897.69;;;22.64;100.00
32735;BME280;19112;51.076;3.706;2023-07-20T15:51:16;100864.94;;;23.00;94.31
32735;BME280;19112;51.076;3.706;2023-07-20T15:54:57;100878.00;;;23.19;80.08
32735;BME280;19112;51.076;3.706;2023-07-20T16:02:11;100754.38;;;23.81;71.06
32735;BME280;19112;51.076;3.706;2023-07-20T16:05:21;101309.69;;;26.11;68.90
32735;BME280;19112;51.076;3.706;2023-07-20T16:22:00;101010.19;;;26.95;56.53
32735;BME280;19112;51.076;3.706;2023-07-20T16:48:54;101272.69;;;26.89;66.58
32735;BME280;19112;51.076;3.706;2023-07-20T16:56:12;101268.56;;;26.40;70.17
32735;BME280;19112;51.076;3.706;2023-07-20T17:09:54;101259.31;;;25.79;72.16
32735;BME280;19112;51.076;3.706;2023-07-20T17:13:29;100961.88;;;24.18;68.42
32735;BME280;19112;51.076;3.706;2023-07-20T17:19:55;100834.03;;;24.16;57.43
32735;BME280;19112;51.076;3.706;2023-07-20T17:23:25;100872.09;;;24.72;53.68
32735;BME280;19112;51.076;3.706;2023-07-20T17:30:14;101264.84;;;27.14;55.33
32735;BME280;19112;51.076;3.706;2023-07-20T17:40:22;101266.06;;;27.63;51.59
32735;BME280;19112;51.076;3.706;2023-07-20T17:47:27;100883.16;;;25.62;55.04
32735;BME280;19112;51.076;3.706;2023-07-20T18:06:35;100804.22;;;24.28;57.23
32735;BME280;19112;51.076;3.706;2023-07-20T18:09:32;100876.44;;;24.76;56.05
32735;BME280;19112;51.076;3.706;2023-07-20T18:13:14;101250.78;;;27.01;55.89
32735;BME280;19112;51.076;3.706;2023-07-20T18:23:45;101125.25;;;25.96;57.86
32735;BME280;19112;51.076;3.706;2023-07-20T18:34:04;100872.34;;;23.82;61.99
32735;BME280;19112;51.076;3.706;2023-07-20T18:39:55;101118.22;;;25.16;63.33
32735;BME280;19112;51.076;3.706;2023-07-20T18:42:59;101251.22;;;25.80;64.06
32735;BME280;19112;51.076;3.706;2023-07-20T18:46:19;101250.63;;;25.65;64.12
32735;BME280;19112;51.076;3.706;2023-07-20T18:56:27;101243.78;;;25.10;69.03
32735;BME280;19112;51.076;3.706;2023-07-20T18:59:18;101248.47;;;24.98;68.34
32735;BME280;19112;51.076;3.706;2023-07-20T19:02:09;100813.50;;;22.26;68.49
32735;BME280;19112;51.076;3.706;2023-07-20T19:05:22;100911.84;;;22.69;70.82
32735;BME280;19112;51.076;3.706;2023-07-20T19:09:03;101246.47;;;24.60;71.57
32735;BME280;19112;51.076;3.706;2023-07-20T19:15:28;100803.59;;;21.71;73.71
32735;BME280;19112;51.076;3.706;2023-07-20T19:19:02;101242.72;;;24.18;76.00
32735;BME280;19112;51.076;3.706;2023-07-20T19:22:23;100840.97;;;21.74;75.18
32735;BME280;19112;51.076;3.706;2023-07-20T19:25:47;101237.88;;;23.87;75.16
32735;BME280;19112;51.076;3.706;2023-07-20T19:28:24;101238.03;;;23.75;74.56
32735;BME280;19112;51.076;3.706;2023-07-20T19:31:25;100735.28;;;20.73;74.82
32735;BME280;19112;51.076;3.706;2023-07-20T19:34:17;100807.13;;;20.95;73.39
32735;BME280;19112;51.076;3.706;2023-07-20T19:40:20;100896.03;;;21.01;74.31
32735;BME280;19112;51.076;3.706;2023-07-20T19:43:23;101233.69;;;22.95;75.77
32735;BME280;19112;51.076;3.706;2023-07-20T19:46:24;100908.69;;;20.76;75.63
32735;BME280;19112;51.076;3.706;2023-07-20T19:49:16;100813.97;;;20.20;75.48
32735;BME280;19112;51.076;3.706;2023-07-20T19:52:35;101243.06;;;22.52;75.83
32735;BME280;19112;51.076;3.706;2023-07-20T19:55:26;100755.72;;;19.47;74.94
32735;BME280;19112;51.076;3.706;2023-07-20T20:02:25;100644.28;;;18.43;79.37
32735;BME280;19112;51.076;3.706;2023-07-20T20:05:32;101256.88;;;21.93;78.82
32735;BME280;19112;51.076;3.706;2023-07-20T20:08:27;100872.88;;;19.56;77.19
32735;BME280;19112;51.076;3.706;2023-07-20T20:11:33;101251.66;;;21.77;77.65
32735;BME280;19112;51.076;3.706;2023-07-20T20:17:43;100750.66;;;18.49;82.18
32735;BME280;19112;51.076;3.706;2023-07-20T20:20:50;100868.56;;;18.97;82.85
32735;BME280;19112;51.076;3.706;2023-07-20T20:23:42;100767.47;;;18.42;80.22
32735;BME280;19112;51.076;3.706;2023-07-20T20:26:24;100904.91;;;19.19;78.06
32735;BME280;19112;51.076;3.706;2023-07-20T20:28:57;100920.00;;;19.09;78.17
32735;BME280;19112;51.076;3.706;2023-07-20T20:34:00;100924.41;;;18.91;79.85
32735;BME280;19112;51.076;3.706;2023-07-20T20:36:54;101259.13;;;21.00;81.84
32735;BME280;19112;51.076;3.706;2023-07-20T20:39:32;100902.25;;;18.78;81.68
32735;BME280;19112;51.076;3.706;2023-07-20T20:42:19;100905.78;;;18.80;80.13
32735;BME280;19112;51.076;3.706;2023-07-20T20:45:07;100943.94;;;18.99;79.53
32735;BME280;19112;51.076;3.706;2023-07-20T20:47:54;100913.78;;;18.78;80.36
32735;BME280;19112;51.076;3.706;2023-07-20T20:50:52;100945.72;;;18.83;80.70
32735;BME280;19112;51.076;3.706;2023-07-20T20:53:38;100785.16;;;18.00;81.52
32735;BME280;19112;51.076;3.706;2023-07-20T20:56:47;100630.94;;;17.00;80.81
32735;BME280;19112;51.076;3.706;2023-07-20T20:59:14;100829.53;;;18.27;80.90
32735;BME280;19112;51.076;3.706;2023-07-20T21:02:12;101254.75;;;20.66;79.99
32735;BME280;19112;51.076;3.706;2023-07-20T21:05:56;101248.56;;;20.61;79.53
32735;BME280;19112;51.076;3.706;2023-07-20T21:08:44;101239.66;;;20.32;79.89
32735;BME280;19112;51.076;3.706;2023-07-20T21:11:13;100939.41;;;18.52;82.13
32735;BME280;19112;51.076;3.706;2023-07-20T21:14:02;100940.28;;;18.48;81.86
32735;BME280;19112;51.076;3.706;2023-07-20T21:17:24;101254.75;;;20.37;80.48
32735;BME280;19112;51.076;3.706;2023-07-20T21:20:13;100918.13;;;18.38;81.26
32735;BME280;19112;51.076;3.706;2023-07-20T21:22:47;100887.03;;;18.08;81.13
32735;BME280;19112;51.076;3.706;2023-07-20T21:25:37;101260.97;;;20.29;80.31
32735;BME280;19112;51.076;3.706;2023-07-20T21:28:29;100904.81;;;18.24;81.54
32735;BME280;19112;51.076;3.706;2023-07-20T21:31:25;100863.06;;;17.93;81.32
32735;BME280;19112;51.076;3.706;2023-07-20T21:34:52;101046.78;;;18.84;80.90
32735;BME280;19112;51.076;3.706;2023-07-20T21:37:23;101102.78;;;19.24;80.34
32735;BME280;19112;51.076;3.706;2023-07-20T21:40:04;100894.16;;;18.12;80.07
32735;BME280;19112;51.076;3.706;2023-07-20T21:43:32;101237.00;;;20.03;80.51
32735;BME280;19112;51.076;3.706;2023-07-20T21:46:24;101252.97;;;20.00;80.64
32735;BME280;19112;51.076;3.706;2023-07-20T21:49:00;101238.75;;;19.96;80.48
32735;BME280;19112;51.076;3.706;2023-07-20T21:51:51;101237.00;;;19.92;80.23
32735;BME280;19112;51.076;3.706;2023-07-20T21:54:35;101242.31;;;19.87;80.27
32735;BME280;19112;51.076;3.706;2023-07-20T22:00:31;100739.56;;;16.82;81.10
32735;BME280;19112;51.076;3.706;2023-07-20T22:06:55;101243.16;;;19.70;84.04
32735;BME280;19112;51.076;3.706;2023-07-20T22:10:30;100668.50;;;16.28;84.06
32735;BME280;19112;51.076;3.706;2023-07-20T22:13:35;100891.25;;;17.59;82.57
32735;BME280;19112;51.076;3.706;2023-07-20T22:23:54;100888.53;;;17.48;80.75
32735;BME280;19112;51.076;3.706;2023-07-20T22:26:46;101073.34;;;18.69;80.86
32735;BME280;19112;51.076;3.706;2023-07-20T22:29:48;101116.78;;;18.68;81.27
32735;BME280;19112;51.076;3.706;2023-07-20T22:32:57;100901.81;;;17.49;81.11
32735;BME280;19112;51.076;3.706;2023-07-20T22:36:04;101228.84;;;19.49;81.59
32735;BME280;19112;51.076;3.706;2023-07-20T22:39:24;100728.81;;;16.65;80.93
32735;BME280;19112;51.076;3.706;2023-07-20T22:42:00;101220.88;;;19.48;81.08
32735;BME280;19112;51.076;3.706;2023-07-20T22:45:31;101259.94;;;19.44;80.33
32735;BME280;19112;51.076;3.706;2023-07-20T22:48:28;100709.22;;;16.39;80.04
32735;BME280;19112;51.076;3.706;2023-07-20T22:51:38;100868.09;;;17.32;79.96
32735;BME280;19112;51.076;3.706;2023-07-20T22:54:46;101212.84;;;19.32;79.91
32735;BME280;19112;51.076;3.706;2023-07-20T22:57:24;101236.78;;;19.25;79.82
32735;BME280;19112;51.076;3.706;2023-07-20T23:00:01;101219.03;;;19.27;80.13
32735;BME280;19112;51.076;3.706;2023-07-20T23:03:02;100748.91;;;16.33;80.77
32735;BME280;19112;51.076;3.706;2023-07-20T23:05:58;101201.19;;;19.00;81.02
32735;BME280;19112;51.076;3.706;2023-07-20T23:08:24;100867.03;;;17.05;82.24
32735;BME280;19112;51.076;3.706;2023-07-20T23:11:12;100796.75;;;16.51;82.84
32735;BME280;19112;51.076;3.706;2023-07-20T23:14:06;100675.13;;;15.72;81.34
32735;BME280;19112;51.076;3.706;2023-07-20T23:16:58;101121.09;;;18.46;81.31
32735;BME280;19112;51.076;3.706;2023-07-20T23:23:01;100692.06;;;15.91;80.51
32735;BME280;19112;51.076;3.706;2023-07-20T23:25:28;100689.50;;;16.02;80.53
32735;BME280;19112;51.076;3.706;2023-07-20T23:27:54;100778.13;;;16.42;80.38
32735;BME280;19112;51.076;3.706;2023-07-20T23:30:29;100806.50;;;16.52;79.81
32735;BME280;19112;51.076;3.706;2023-07-20T23:33:07;100855.38;;;16.83;79.93
32735;BME280;19112;51.076;3.706;2023-07-20T23:35:48;100970.66;;;17.29;80.19
32735;BME280;19112;51.076;3.706;2023-07-20T23:38:17;100773.44;;;16.09;79.73
32735;BME280;19112;51.076;3.706;2023-07-20T23:40:46;101206.44;;;18.84;80.02
32735;BME280;19112;51.076;3.706;2023-07-20T23:43:34;101234.81;;;18.81;81.14
32735;BME280;19112;51.076;3.706;2023-07-20T23:46:24;101040.09;;;17.82;81.10
32735;BME280;19112;51.076;3.706;2023-07-20T23:49:16;100912.06;;;16.97;80.61
32735;BME280;19112;51.076;3.706;2023-07-20T23:52:03;101009.88;;;17.64;80.96
32735;BME280;19112;51.076;3.706;2023-07-20T23:55:09;101208.16;;;18.73;80.18
32735;BME280;19112;51.076;3.706;2023-07-20T23:58:01;101105.84;;;18.13;80.33
